Haverhill, Massachusetts
Traffic Map
Current Weather Conditions
Haverhill, Massachusetts
Clear
Clear
45°
Feels Like: 45°
Wind Chill: 45° Ceiling: Unl
Heat Index: 45° Visibility: 10mi
Dew Point: 39° Wind: 0mph
Humidity: 80% Direction: ° ()
Pressure: 29.58in Gusts: 0mph
Raw Report DataKLWM 210654Z AUTO 00000KT 10SM CLR 07/04 A2958 RMK AO2 SLP015 T00720039
Traffic Incident Summary
Active as of:
Severity:
Category:
InformationThere was an issue retrieving the traffic information for this location. Please try a different location or try again shortly.
Advertisements